createdAt,value
2023-01-04T00:01:10.194Z,2.90
2023-01-04T00:03:36.794Z,6.90
2023-01-04T00:06:06.192Z,5.20
2023-01-04T00:08:33.420Z,4.00
2023-01-04T00:11:13.115Z,4.60
2023-01-04T00:13:40.168Z,4.70
2023-01-04T00:16:10.705Z,5.90
2023-01-04T00:18:37.495Z,6.60
2023-01-04T00:21:14.323Z,5.60
2023-01-04T00:23:42.613Z,4.70
2023-01-04T00:26:14.607Z,6.60
2023-01-04T00:28:41.560Z,4.30
2023-01-04T00:31:10.538Z,4.40
2023-01-04T00:33:37.671Z,5.10
2023-01-04T00:36:09.917Z,5.20
2023-01-04T00:38:36.903Z,3.80
2023-01-04T00:41:04.918Z,4.40
2023-01-04T00:43:31.498Z,5.00
2023-01-04T00:45:58.481Z,4.30
2023-01-04T00:48:25.492Z,4.60
2023-01-04T00:50:51.987Z,4.10
2023-01-04T00:53:18.990Z,5.70
2023-01-04T00:55:46.286Z,7.10
2023-01-04T00:58:13.050Z,4.10
2023-01-04T01:00:39.987Z,5.40
2023-01-04T01:03:07.314Z,5.10
2023-01-04T01:05:35.547Z,5.70
2023-01-04T01:08:24.558Z,4.70
2023-01-04T01:10:52.256Z,4.60
2023-01-04T01:13:19.213Z,3.90
2023-01-04T01:15:45.869Z,4.80
2023-01-04T01:18:12.797Z,5.20
2023-01-04T01:20:44.542Z,4.20
2023-01-04T01:23:15.502Z,5.60
2023-01-04T01:25:42.512Z,6.30
2023-01-04T01:28:09.140Z,6.10
2023-01-04T01:30:40.225Z,6.20
2023-01-04T01:33:06.698Z,4.50
2023-01-04T01:35:34.223Z,4.80
2023-01-04T01:38:00.785Z,4.00
2023-01-04T01:40:27.805Z,7.00
2023-01-04T01:42:54.479Z,5.40
2023-01-04T01:45:34.421Z,4.30
2023-01-04T01:48:10.304Z,5.70
2023-01-04T01:50:47.106Z,6.40
2023-01-04T01:53:14.858Z,4.10
2023-01-04T01:55:46.493Z,5.60
2023-01-04T01:58:21.848Z,5.40
2023-01-04T02:00:48.515Z,4.80
2023-01-04T02:03:21.923Z,4.60
2023-01-04T02:05:52.341Z,5.00
2023-01-04T02:08:22.426Z,5.00
2023-01-04T02:10:51.614Z,4.20
2023-01-04T02:13:23.510Z,4.50
2023-01-04T02:16:18.285Z,3.50
2023-01-04T02:18:56.467Z,4.30
2023-01-04T02:21:28.657Z,4.40
2023-01-04T02:24:33.939Z,4.00
2023-01-04T02:27:19.055Z,3.90
2023-01-04T02:30:24.659Z,5.30
2023-01-04T02:33:08.986Z,3.70
2023-01-04T02:35:41.441Z,5.10
2023-01-04T02:38:32.086Z,5.40
2023-01-04T02:41:26.871Z,4.30
2023-01-04T02:44:23.652Z,4.10
2023-01-04T02:47:01.688Z,3.40
2023-01-04T02:49:46.803Z,3.30
2023-01-04T02:52:13.640Z,5.50
2023-01-04T02:54:40.788Z,5.00
2023-01-04T02:57:39.999Z,4.30
2023-01-04T03:00:09.898Z,3.30
2023-01-04T03:03:32.148Z,3.70
2023-01-04T03:06:28.824Z,3.60
2023-01-04T03:09:04.532Z,4.40
2023-01-04T03:12:18.561Z,6.50
2023-01-04T03:15:00.441Z,3.80
2023-01-04T03:17:32.251Z,4.40
2023-01-04T03:20:00.212Z,5.00
2023-01-04T03:23:06.213Z,4.30
2023-01-04T03:26:00.668Z,3.50
2023-01-04T03:28:49.395Z,7.30
2023-01-04T03:31:50.349Z,3.60
2023-01-04T03:34:36.561Z,3.20
2023-01-04T03:37:39.060Z,3.70
2023-01-04T03:40:53.941Z,5.50
2023-01-04T03:43:42.603Z,3.90
2023-01-04T03:46:38.888Z,3.80
2023-01-04T03:49:12.254Z,4.20
2023-01-04T03:51:39.703Z,4.60
2023-01-04T03:54:11.997Z,4.90
2023-01-04T03:56:42.016Z,5.10
2023-01-04T03:59:10.103Z,5.50
2023-01-04T04:01:37.082Z,5.70
2023-01-04T04:04:22.776Z,4.20
2023-01-04T04:07:07.911Z,4.20
2023-01-04T04:09:35.156Z,6.50
2023-01-04T04:12:01.634Z,5.00
2023-01-04T04:14:28.118Z,3.30
2023-01-04T04:16:54.608Z,8.00
2023-01-04T04:19:21.934Z,4.20
2023-01-04T04:21:48.398Z,4.10
2023-01-04T04:24:20.634Z,4.00
2023-01-04T04:26:47.051Z,4.20
2023-01-04T04:29:13.482Z,4.30
2023-01-04T04:31:39.993Z,5.90
2023-01-04T04:34:06.678Z,4.60
2023-01-04T04:36:33.289Z,5.20
2023-01-04T04:38:59.712Z,3.90
2023-01-04T04:41:38.365Z,5.00
2023-01-04T04:44:06.186Z,4.60
2023-01-04T04:46:32.620Z,5.50
2023-01-04T04:48:59.072Z,4.20
2023-01-04T04:51:25.569Z,4.70
2023-01-04T04:53:52.039Z,5.00
2023-01-04T04:56:18.437Z,6.10
2023-01-04T04:58:45.230Z,5.40
2023-01-04T05:01:12.073Z,5.90
2023-01-04T05:03:38.693Z,4.70
2023-01-04T05:06:06.008Z,5.30
2023-01-04T05:08:32.527Z,5.00
2023-01-04T05:10:59.121Z,3.90
2023-01-04T05:13:25.571Z,4.40
2023-01-04T05:15:52.891Z,6.40
2023-01-04T05:18:21.019Z,4.30
2023-01-04T05:20:48.008Z,3.50
2023-01-04T05:23:15.755Z,4.20
2023-01-04T05:25:42.596Z,4.80
2023-01-04T05:28:13.039Z,4.30
2023-01-04T05:30:52.383Z,3.80
2023-01-04T05:33:23.585Z,3.60
2023-01-04T05:35:51.302Z,5.60
2023-01-04T05:38:17.832Z,3.70
2023-01-04T05:40:45.310Z,6.50
2023-01-04T05:43:13.759Z,4.70
2023-01-04T05:45:43.175Z,3.30
2023-01-04T05:48:09.629Z,4.60
2023-01-04T05:50:36.302Z,3.50
2023-01-04T05:53:03.090Z,4.90
2023-01-04T05:55:29.869Z,3.70
2023-01-04T05:57:56.454Z,4.20
2023-01-04T06:00:22.970Z,5.00
2023-01-04T06:02:49.604Z,4.20
2023-01-04T06:05:16.176Z,3.70
2023-01-04T06:07:42.632Z,5.30
2023-01-04T06:10:11.255Z,3.00
2023-01-04T06:12:38.287Z,3.30
2023-01-04T06:15:06.003Z,3.70
2023-01-04T06:17:32.729Z,3.80
2023-01-04T06:19:59.140Z,3.10
2023-01-04T06:22:27.037Z,3.60
2023-01-04T06:24:53.610Z,3.80
2023-01-04T06:27:20.175Z,3.10
2023-01-04T06:29:46.699Z,3.50
2023-01-04T06:32:13.177Z,3.40
2023-01-04T06:34:39.579Z,5.30
2023-01-04T06:37:06.593Z,2.70
2023-01-04T06:39:33.080Z,3.00
2023-01-04T06:42:06.293Z,3.30
2023-01-04T06:44:33.687Z,3.80
2023-01-04T06:47:00.077Z,3.70
2023-01-04T06:49:26.637Z,3.40
2023-01-04T06:51:53.046Z,3.00
2023-01-04T06:54:19.418Z,2.90
2023-01-04T06:56:45.933Z,3.10
2023-01-04T06:59:12.393Z,3.70
2023-01-04T07:01:38.912Z,2.50
2023-01-04T07:04:05.494Z,3.30
2023-01-04T07:06:31.915Z,3.00
2023-01-04T07:08:58.394Z,1.90
2023-01-04T07:11:24.937Z,4.00
2023-01-04T07:13:52.737Z,2.80
2023-01-04T07:16:20.616Z,3.60
2023-01-04T07:18:47.275Z,2.20
2023-01-04T07:21:13.658Z,2.10
2023-01-04T07:23:40.130Z,2.70
2023-01-04T07:26:06.741Z,2.40
2023-01-04T07:28:51.770Z,2.40
2023-01-04T07:31:18.256Z,1.60
2023-01-04T07:33:44.683Z,2.60
2023-01-04T07:36:11.139Z,3.00
2023-01-04T07:38:37.694Z,2.30
2023-01-04T07:41:04.747Z,2.20
2023-01-04T07:43:31.349Z,2.40
2023-01-04T07:45:57.909Z,2.20
2023-01-04T07:48:24.489Z,2.30
2023-01-04T07:50:50.963Z,2.70
2023-01-04T07:53:18.643Z,3.00
2023-01-04T07:55:45.045Z,3.10
2023-01-04T07:58:11.490Z,2.50
2023-01-04T08:00:37.854Z,3.10
2023-01-04T08:03:04.565Z,2.00
2023-01-04T08:05:34.896Z,2.70
2023-01-04T08:08:01.566Z,3.10
2023-01-04T08:10:28.777Z,2.30
2023-01-04T08:12:58.370Z,2.00
2023-01-04T08:15:25.034Z,3.10
2023-01-04T08:17:52.176Z,1.80
2023-01-04T08:20:19.205Z,2.20
2023-01-04T08:22:45.582Z,2.00
2023-01-04T08:25:12.062Z,2.10
2023-01-04T08:27:38.562Z,1.70
2023-01-04T08:30:05.566Z,3.90
2023-01-04T08:32:32.017Z,2.00
2023-01-04T08:34:58.552Z,2.70
2023-01-04T08:37:25.099Z,2.70
2023-01-04T08:39:51.623Z,3.90
2023-01-04T08:42:26.601Z,2.20
2023-01-04T08:44:59.823Z,2.40
2023-01-04T08:47:27.557Z,2.20
2023-01-04T08:49:54.142Z,2.50
2023-01-04T08:52:20.573Z,2.30
2023-01-04T08:54:47.348Z,2.80
2023-01-04T08:57:13.796Z,1.90
2023-01-04T08:59:40.335Z,2.80
2023-01-04T09:02:27.521Z,2.60
2023-01-04T09:05:00.137Z,2.20
2023-01-04T09:07:31.578Z,3.30
2023-01-04T09:09:58.247Z,3.00
2023-01-04T09:12:24.631Z,3.50
2023-01-04T09:14:51.062Z,2.80
2023-01-04T09:17:17.534Z,4.60
2023-01-04T09:19:43.943Z,5.80
2023-01-04T09:22:10.663Z,2.60
2023-01-04T09:24:37.141Z,3.30
2023-01-04T09:27:04.707Z,6.30
2023-01-04T09:29:31.220Z,6.00
2023-01-04T09:31:57.788Z,4.20
2023-01-04T09:34:24.274Z,3.30
2023-01-04T09:36:50.744Z,3.00
2023-01-04T09:39:24.821Z,2.40
2023-01-04T09:41:57.985Z,2.40
2023-01-04T09:47:49.489Z,2.40
2023-01-04T09:50:18.975Z,2.50
2023-01-04T09:53:11.333Z,1.50
2023-01-04T09:55:48.168Z,2.60
2023-01-04T09:58:37.676Z,2.50
2023-01-04T10:01:17.811Z,2.20
2023-01-04T10:03:58.150Z,1.40
2023-01-04T10:06:24.751Z,1.90
2023-01-04T10:08:51.546Z,2.10
2023-01-04T10:11:21.379Z,2.30
2023-01-04T10:14:11.696Z,1.60
2023-01-04T10:22:34.008Z,1.60
2023-01-04T10:25:26.425Z,2.00
2023-01-04T10:27:58.687Z,2.10
2023-01-04T10:30:33.710Z,1.30
2023-01-04T10:33:29.744Z,1.10
2023-01-04T10:35:57.283Z,2.00
2023-01-04T10:38:28.199Z,1.20
2023-01-04T10:40:58.441Z,2.00
2023-01-04T10:44:14.459Z,1.50
2023-01-04T10:46:48.976Z,2.00
2023-01-04T10:49:20.908Z,1.40
2023-01-04T10:52:06.816Z,1.10
2023-01-04T10:54:42.165Z,1.70
2023-01-04T10:57:16.033Z,1.10
2023-01-04T11:00:06.395Z,1.00
2023-01-04T11:02:50.380Z,1.20
2023-01-04T11:05:16.768Z,1.20
2023-01-04T11:07:58.435Z,0.80
2023-01-04T11:10:36.048Z,1.40
2023-01-04T11:13:02.900Z,2.30
2023-01-04T11:15:30.532Z,2.10
2023-01-04T11:18:00.449Z,1.40
2023-01-04T11:20:27.494Z,1.50
2023-01-04T11:23:09.356Z,1.50
2023-01-04T11:25:41.893Z,1.20
2023-01-04T11:28:16.971Z,1.10
2023-01-04T11:31:09.234Z,2.60
2023-01-04T11:33:59.679Z,2.20
2023-01-04T11:36:39.899Z,3.10
2023-01-04T11:39:27.801Z,1.20
2023-01-04T11:42:06.154Z,2.00
2023-01-04T11:44:34.300Z,1.60
2023-01-04T11:47:22.519Z,1.80
2023-01-04T11:49:49.943Z,0.80
2023-01-04T11:52:34.585Z,1.30
2023-01-04T11:55:25.713Z,1.60
2023-01-04T11:58:11.223Z,0.90
2023-01-04T12:00:38.892Z,1.00
2023-01-04T12:03:17.787Z,1.80
2023-01-04T12:05:44.738Z,0.80
2023-01-04T12:08:31.420Z,1.50
2023-01-04T12:10:59.961Z,1.70
2023-01-04T12:13:26.857Z,1.70
2023-01-04T12:16:18.492Z,1.10
2023-01-04T12:18:45.635Z,1.50
2023-01-04T12:21:21.755Z,2.10
2023-01-04T12:23:48.949Z,1.30
2023-01-04T12:26:17.082Z,3.00
2023-01-04T12:28:47.185Z,2.70
2023-01-04T12:31:20.537Z,0.60
2023-01-04T12:33:51.875Z,1.40
2023-01-04T12:36:35.862Z,0.90
2023-01-04T12:39:14.344Z,1.30
2023-01-04T12:41:40.751Z,1.50
2023-01-04T12:44:46.808Z,1.00
2023-01-04T12:47:42.307Z,1.10
2023-01-04T12:50:11.770Z,1.30
2023-01-04T12:55:35.155Z,0.90
2023-01-04T13:01:26.569Z,0.90
2023-01-04T13:04:06.142Z,0.90
2023-01-04T13:06:42.548Z,0.80
2023-01-04T13:09:24.921Z,2.80
2023-01-04T13:12:26.024Z,0.90
2023-01-04T13:15:03.265Z,1.00
2023-01-04T13:17:31.743Z,0.80
2023-01-04T13:19:58.363Z,2.30
2023-01-04T13:22:30.398Z,1.30
2023-01-04T13:24:58.734Z,1.00
2023-01-04T13:27:26.445Z,1.60
2023-01-04T13:29:53.187Z,1.50
2023-01-04T13:32:47.040Z,0.60
2023-01-04T13:35:19.232Z,10.30
2023-01-04T13:37:47.885Z,6.90
2023-01-04T13:40:22.904Z,2.30
2023-01-04T13:43:40.575Z,0.60
2023-01-04T13:46:19.964Z,2.30
2023-01-04T13:48:49.202Z,1.30
2023-01-04T13:51:36.221Z,1.10
2023-01-04T13:54:06.736Z,1.50
2023-01-04T13:56:35.076Z,1.00
2023-01-04T13:59:01.856Z,0.50
2023-01-04T14:01:31.307Z,0.80
2023-01-04T14:04:03.875Z,2.20
2023-01-04T14:06:39.896Z,1.50
2023-01-04T14:09:09.779Z,1.20
2023-01-04T14:12:07.448Z,1.90
2023-01-04T14:14:48.043Z,1.30
2023-01-04T14:17:22.463Z,1.40
2023-01-04T14:19:57.433Z,2.40
2023-01-04T14:22:46.978Z,1.40
2023-01-04T14:25:38.201Z,1.30
2023-01-04T14:28:24.547Z,3.40
2023-01-04T14:30:53.961Z,2.20
2023-01-04T14:33:41.750Z,2.40
2023-01-04T14:36:19.720Z,1.70
2023-01-04T14:38:55.697Z,2.60
2023-01-04T14:41:31.439Z,3.40
2023-01-04T14:44:00.922Z,6.00
2023-01-04T14:46:29.631Z,1.50
2023-01-04T14:48:56.064Z,1.40
2023-01-04T14:51:30.605Z,1.90
2023-01-04T14:53:56.964Z,1.80
2023-01-04T14:56:23.354Z,2.20
2023-01-04T14:58:49.782Z,1.20
2023-01-04T15:01:16.520Z,1.80
2023-01-04T15:03:43.015Z,1.50
2023-01-04T15:06:10.534Z,1.70
2023-01-04T15:08:36.950Z,2.00
2023-01-04T15:11:03.554Z,3.10
2023-01-04T15:13:38.732Z,1.50
2023-01-04T15:16:07.402Z,2.90
2023-01-04T15:18:33.950Z,2.20
2023-01-04T15:21:00.568Z,2.30
2023-01-04T15:23:27.056Z,2.70
2023-01-04T15:25:53.435Z,5.40
2023-01-04T15:28:21.659Z,2.50
2023-01-04T15:30:48.075Z,4.40
2023-01-04T15:33:14.465Z,2.40
2023-01-04T15:35:40.868Z,3.60
2023-01-04T15:38:09.443Z,3.00
2023-01-04T15:40:38.069Z,4.10
2023-01-04T15:43:04.474Z,2.30
2023-01-04T15:45:35.968Z,3.90
2023-01-04T15:48:08.007Z,3.80
2023-01-04T15:50:36.811Z,3.10
2023-01-04T15:53:04.429Z,2.60
2023-01-04T15:55:36.055Z,4.70
2023-01-04T15:58:03.985Z,3.70
2023-01-04T16:00:30.401Z,3.20
2023-01-04T16:02:57.057Z,4.10
2023-01-04T16:05:23.605Z,3.00
2023-01-04T16:07:50.060Z,2.70
2023-01-04T16:10:16.793Z,3.10
2023-01-04T16:12:43.361Z,4.60
2023-01-04T16:15:13.627Z,3.70
2023-01-04T16:17:40.766Z,4.90
2023-01-04T16:20:08.221Z,3.30
2023-01-04T16:22:35.087Z,4.40
2023-01-04T16:25:10.804Z,4.70
2023-01-04T16:27:39.175Z,4.30
2023-01-04T16:30:10.752Z,3.40
2023-01-04T16:32:40.135Z,5.80
2023-01-04T16:35:06.787Z,5.00
2023-01-04T16:37:33.192Z,4.90
2023-01-04T16:40:08.661Z,5.00
2023-01-04T16:42:36.435Z,4.10
2023-01-04T16:45:02.912Z,6.40
2023-01-04T16:47:29.367Z,4.70
2023-01-04T16:49:55.853Z,5.80
2023-01-04T16:52:22.365Z,6.60
2023-01-04T16:54:48.956Z,6.30
2023-01-04T16:57:15.375Z,3.70
2023-01-04T16:59:41.776Z,5.20
2023-01-04T17:02:11.129Z,4.60
2023-01-04T17:04:37.756Z,5.00
2023-01-04T17:07:04.849Z,4.90
2023-01-04T17:09:31.435Z,4.30
2023-01-04T17:14:49.038Z,4.30
2023-01-04T17:17:23.802Z,4.00
2023-01-04T17:19:50.352Z,4.20
2023-01-04T17:22:16.968Z,3.20
2023-01-04T17:24:43.376Z,3.60
2023-01-04T17:27:10.744Z,4.50
2023-01-04T17:29:37.111Z,4.50
2023-01-04T17:32:03.741Z,2.50
2023-01-04T17:34:30.196Z,4.10
2023-01-04T17:36:56.594Z,5.90
2023-01-04T17:39:23.198Z,5.50
2023-01-04T17:41:49.706Z,4.90
2023-01-04T17:44:16.096Z,4.30
2023-01-04T17:46:42.493Z,3.50
2023-01-04T17:49:22.640Z,5.90
2023-01-04T17:51:51.021Z,4.70
2023-01-04T17:54:17.803Z,3.20
2023-01-04T17:56:44.179Z,4.40
2023-01-04T17:59:11.929Z,3.70
2023-01-04T18:01:38.448Z,5.80
2023-01-04T18:04:05.232Z,3.60
2023-01-04T18:06:34.863Z,2.80
2023-01-04T18:09:02.538Z,5.20
2023-01-04T18:11:29.327Z,4.70
2023-01-04T18:13:56.256Z,3.90
2023-01-04T18:16:27.279Z,8.40
2023-01-04T18:18:59.381Z,5.30
2023-01-04T18:21:31.180Z,5.50
2023-01-04T18:27:19.837Z,8.00
2023-01-04T18:29:33.425Z,5.80
2023-01-04T18:32:00.058Z,5.80
2023-01-04T18:34:26.904Z,9.20
2023-01-04T18:36:53.559Z,5.60
2023-01-04T18:39:20.173Z,8.50
2023-01-04T18:41:46.655Z,7.60
2023-01-04T18:44:32.174Z,6.10
2023-01-04T18:46:59.008Z,7.50
2023-01-04T18:49:25.437Z,5.20
2023-01-04T18:51:51.832Z,5.90
2023-01-04T18:54:20.722Z,8.90
2023-01-04T18:56:47.893Z,3.70
2023-01-04T18:59:17.236Z,4.80
2023-01-04T19:01:45.286Z,3.80
2023-01-04T19:04:12.825Z,3.30
2023-01-04T19:06:40.547Z,5.00
2023-01-04T19:09:07.612Z,4.90
2023-01-04T19:11:34.713Z,5.30
2023-01-04T19:14:01.656Z,5.70
2023-01-04T19:16:31.197Z,5.80
2023-01-04T19:18:59.503Z,6.50
2023-01-04T19:21:26.317Z,3.70
2023-01-04T19:23:52.940Z,4.90
2023-01-04T19:26:20.459Z,3.60
2023-01-04T19:28:47.326Z,4.40
2023-01-04T19:31:14.505Z,5.90
2023-01-04T19:33:41.166Z,8.80
2023-01-04T19:36:09.804Z,6.30
2023-01-04T19:38:36.792Z,7.70
2023-01-04T19:41:04.875Z,5.50
2023-01-04T19:43:32.088Z,6.80
2023-01-04T19:45:58.822Z,7.30
2023-01-04T19:48:25.306Z,7.20
2023-01-04T19:51:08.132Z,8.50
2023-01-04T19:53:34.824Z,5.50
2023-01-04T19:56:01.565Z,6.40
2023-01-04T19:58:28.084Z,5.70
2023-01-04T20:00:55.355Z,5.40
2023-01-04T20:03:22.517Z,6.10
2023-01-04T20:05:49.881Z,6.00
2023-01-04T20:08:16.309Z,9.00
2023-01-04T20:10:43.405Z,6.00
2023-01-04T20:13:09.975Z,8.10
2023-01-04T20:15:40.105Z,8.50
2023-01-04T20:18:13.289Z,4.90
2023-01-04T20:20:44.296Z,9.40
2023-01-04T20:23:11.929Z,8.00
2023-01-04T20:25:50.120Z,8.40
2023-01-04T20:28:17.874Z,8.20
2023-01-04T20:30:44.345Z,6.80
2023-01-04T20:33:11.114Z,9.00
2023-01-04T20:35:41.964Z,8.00
2023-01-04T20:38:09.944Z,10.20
2023-01-04T20:40:37.671Z,10.80
2023-01-04T20:43:23.441Z,7.60
2023-01-04T20:45:49.892Z,11.00
2023-01-04T20:48:16.690Z,8.50
2023-01-04T20:50:43.521Z,8.20
2023-01-04T20:53:11.554Z,8.10
2023-01-04T20:55:43.844Z,8.10
2023-01-04T20:58:12.780Z,10.80
2023-01-04T21:00:40.254Z,8.80
2023-01-04T21:03:08.978Z,8.80
2023-01-04T21:05:53.804Z,10.40
2023-01-04T21:08:20.438Z,10.30
2023-01-04T21:10:46.861Z,9.30
2023-01-04T21:13:13.344Z,9.70
2023-01-04T21:15:41.234Z,12.60
2023-01-04T21:18:11.616Z,10.90
2023-01-04T21:20:42.886Z,9.30
2023-01-04T21:23:15.224Z,6.50
2023-01-04T21:25:42.445Z,13.20
2023-01-04T21:28:09.655Z,11.80
2023-01-04T21:30:39.160Z,11.40
2023-01-04T21:33:05.786Z,10.50
2023-01-04T21:35:32.304Z,11.90
2023-01-04T21:37:58.703Z,8.50
2023-01-04T21:40:25.210Z,6.20
2023-01-04T21:42:51.735Z,10.80
2023-01-04T21:45:18.744Z,8.00
2023-01-04T21:47:45.950Z,5.40
2023-01-04T21:50:16.970Z,10.10
2023-01-04T21:52:43.915Z,6.10
2023-01-04T21:55:10.446Z,8.60
2023-01-04T21:57:37.256Z,8.60
2023-01-04T22:00:06.139Z,9.60
2023-01-04T22:02:33.526Z,11.40
2023-01-04T22:05:00.814Z,11.00
2023-01-04T22:07:27.333Z,9.80
2023-01-04T22:09:57.434Z,7.80
2023-01-04T22:12:24.417Z,7.90
2023-01-04T22:14:50.825Z,6.90
2023-01-04T22:17:17.299Z,6.00
2023-01-04T22:19:43.771Z,9.40
2023-01-04T22:22:10.455Z,11.90
2023-01-04T22:24:38.194Z,10.80
2023-01-04T22:27:04.778Z,9.80
2023-01-04T22:29:31.362Z,16.90
2023-01-04T22:31:58.513Z,12.20
2023-01-04T22:34:25.083Z,13.50
2023-01-04T22:36:51.535Z,10.80
2023-01-04T22:39:18.027Z,11.70
2023-01-04T22:41:44.381Z,11.90
2023-01-04T22:44:10.989Z,11.90
2023-01-04T22:46:37.511Z,9.30
2023-01-04T22:49:04.145Z,12.40
2023-01-04T22:51:31.632Z,10.30
2023-01-04T22:54:01.671Z,11.20
2023-01-04T22:56:28.849Z,11.10
2023-01-04T22:58:56.517Z,10.70
2023-01-04T23:01:28.245Z,10.40
2023-01-04T23:03:55.302Z,11.80
2023-01-04T23:06:22.857Z,8.70
2023-01-04T23:08:58.942Z,9.60
2023-01-04T23:11:26.820Z,10.10
2023-01-04T23:13:54.022Z,10.20
2023-01-04T23:16:24.948Z,9.20
2023-01-04T23:18:56.178Z,12.10
2023-01-04T23:21:22.735Z,12.00
2023-01-04T23:23:50.421Z,10.60
2023-01-04T23:26:19.882Z,11.30
2023-01-04T23:28:46.828Z,9.80
2023-01-04T23:31:15.477Z,10.80
2023-01-04T23:33:42.310Z,11.20
2023-01-04T23:36:17.749Z,12.00
2023-01-04T23:38:49.174Z,12.40
2023-01-04T23:41:15.572Z,10.30
2023-01-04T23:43:42.022Z,10.30
2023-01-04T23:46:15.358Z,9.70
2023-01-04T23:48:42.141Z,8.50
2023-01-04T23:51:09.289Z,8.20
2023-01-04T23:53:35.897Z,10.90
2023-01-04T23:56:07.907Z,9.70
2023-01-04T23:58:34.516Z,11.70
